Nearby METAR Reports

 

KIAG - Niagara Falls, New York, USA
Distance from station: W 12mi, 20km
Updated: 07/12/2020 7:53pm
Clear
Clear
 Wind from WNW
Wind: WNW 9 mph , 15 km/h
Temperature: 75°F , 24°C
Dew Point: 59°F , 15°C
Humidity: 57%
Barometer: 1007.5 hPa
Clouds: Clear
Visibility: 10 miles , 16 km
2020/07/12 23:53 KIAG 122353Z 29008KT 10SM CLR 24/15 A2975 RMK AO2 SLP070 T02390150 10278 20239 53011
KBUF - Buffalo/Cheektow, New York, USA
Distance from station: S 13mi, 21km
Updated: 07/12/2020 7:54pm
Mostly cloudy
Mostly cloudy
 Wind from WSW
Wind: WSW 10 mph , 17 km/h
Temperature: 75°F , 24°C
Dew Point: 64°F , 18°C
Humidity: 69%
Barometer: 1007.8 hPa
Clouds: Mostly cloudy
Visibility: 10 miles , 16 km
Cloud details: Few Clouds 3800 ft
Partly cloudy 4600 ft
Mostly cloudy 5500 ft
Mostly cloudy 15000 ft
Mostly cloudy 20000 ft
Mostly cloudy 25000 ft
2020/07/12 23:54 KBUF 122354Z 24009KT 10SM FEW038 SCT046 BKN055 BKN150 BKN200 BKN250 24/18 A2976 RMK AO2 SLP074 T02440178 10272 20239 53010 $
 
KROC - Rochester, New York, USA
Distance from station: E 51mi, 82km
Updated: 07/12/2020 7:54pm
Mostly cloudy
Mostly cloudy
 Wind from WSW
Wind: WSW 13 mph , 20 km/h
Temperature: 77°F , 25°C
Dew Point: 63°F , 17°C
Humidity: 61%
Barometer: 1007.1 hPa
Clouds: Mostly cloudy
Visibility: 10 miles , 16 km
Cloud details: Partly cloudy 4400 ft
Mostly cloudy 15000 ft
Mostly cloudy 24000 ft
2020/07/12 23:54 KROC 122354Z 25011KT 10SM SCT044 BKN150 BKN240 25/17 A2974 RMK AO2 SLP071 T02500167 10283 20250 53010
CYSN - St. Catharines A, Ontario, Canada
Distance from station: WNW 25mi, 40km
Updated: 07/12/2020 8:00pm
Mostly cloudy
Mostly cloudy
 Wind from NNW
Wind: NNW 6 mph , 9 km/h
Temperature: 75°F , 24°C
Dew Point: 64°F , 18°C
Humidity: 69%
Barometer: 1007.1 hPa
Clouds: Mostly cloudy
Visibility: 15 miles , 24 km
Cloud details: Partly cloudy 6000 ft
Mostly cloudy 14000 ft
Mostly cloudy 24000 ft
2020/07/13 00:00 CYSN 130000Z 33005KT 15SM SCT060 BKN140 BKN240 24/18 A2974 RMK SC3AC2CI2 SLP072 DENSITY ALT 1700FT
 
KOLE - Olean, New York, USA
Distance from station: SSE 63mi, 102km
Updated: 07/12/2020 8:15pm
Clear
Clear
 Wind from WNW
Wind: WNW 6 mph , 9 km/h
Temperature: 66°F , 19°C
Dew Point: 57°F , 14°C
Humidity: 73%
Barometer: 1010.8 hPa
Clouds: Clear
Visibility: 10 miles , 16 km
2020/07/13 00:15 KOLE 130015Z AUTO 29005KT 10SM CLR 19/14 A2985 RMK AO2
KJHW - Jamestown, New York, USA
Distance from station: SSW 74mi, 119km
Updated: 07/12/2020 7:56pm
Clear
Clear
 Wind from W
Wind: W 7 mph , 11 km/h
Temperature: 70°F , 21°C
Dew Point: 61°F , 16°C
Humidity: 73%
Barometer: 1010.5 hPa
Clouds: Clear
Visibility: 10 miles , 16 km
2020/07/12 23:56 KJHW 122356Z AUTO 28006KT 10SM CLR 21/16 A2984 RMK AO2 SLP101 T02060161 10239 20206 53008
 
CWWZ - Port Weller (mar, Ontario, Canada
Distance from station: WNW 28mi, 45km
Updated: 07/12/2020 8:00pm

 Wind from NNW
Wind: NNW 7 mph , 11 km/h
Temperature: 75°F , 24°C
Dew Point: 70°F , 21°C
Humidity: 83%
2020/07/13 00:00 CWWZ 130000Z AUTO 34006KT 24/21 RMK AO1 SLP072 T02420211 53011
CWPC - Port Colborne(Au, Ontario, Canada
Distance from station: WSW 33mi, 53km
Updated: 07/12/2020 8:00pm

 Wind from WNW
Wind: WNW 13 mph , 20 km/h, Gust: 18 mph , 30 km/h
Temperature: 73°F , 23°C
Dew Point: 61°F , 16°C
Humidity: 65%
2020/07/13 00:00 CWPC 130000Z AUTO 29011G16KT 23/16 RMK AO1 SLP079 T02250155 53007
 
CXVN - Vineland (au8), Ontario, Canada
Distance from station: W 36mi, 58km
Updated: 07/12/2020 8:00pm

 Wind from WNW
Wind: WNW 10 mph , 17 km/h
Temperature: 75°F , 24°C
Dew Point: 63°F , 17°C
Humidity: 65%
2020/07/13 00:00 CXVN 130000Z AUTO 29009KT 24/17 RMK AO1 SLP071 T02440174 53010
CYTZ - Toronto Il Vor, Ontario, Canada
Distance from station: NW 50mi, 81km
Updated: 07/12/2020 8:00pm
Clear
Clear
 Wind from NW
Wind: NW 8 mph , 13 km/h
Temperature: 75°F , 24°C
Dew Point: 63°F , 17°C
Humidity: 65%
Barometer: 1007.1 hPa
Clouds: Clear
Visibility: 9 miles , 14 km
2020/07/13 00:00 CYTZ 130000Z AUTO 32007KT 290V010 9SM CLR 24/17 A2974 RMK SLP071 DENSITY ALT 1500FT
 
CXTO - Toronto City, Ontario, Canada
Distance from station: NW 52mi, 84km
Updated: 07/12/2020 8:00pm

 
Temperature: 75°F , 24°C
Dew Point: 59°F , 15°C
Humidity: 57%
2020/07/13 00:00 CXTO 130000Z AUTO 24/15 RMK AO1 1017 SLP078 T02400146 50005
KDKK - Dunkirk, New York, USA
Distance from station: SW 52mi, 84km
Updated: 07/12/2020 7:53pm
Clear
Clear
 Wind from WSW
Wind: WSW 8 mph , 13 km/h
Temperature: 75°F , 24°C
Dew Point: 63°F , 17°C
Humidity: 65%
Barometer: 1008.8 hPa
Clouds: Clear
Visibility: 10 miles , 16 km
2020/07/12 23:53 KDKK 122353Z AUTO 25007KT 10SM CLR 24/17 A2979 RMK AO2 SLP083 T02440167 10261 20244 53008 $
 
CYOO - Oshawa, Ontario, Canada
Distance from station: N 56mi, 90km
Updated: 07/12/2020 8:00pm
Partly cloudy
Partly cloudy
 Wind from NNW
Wind: NNW 9 mph , 15 km/h
Temperature: 70°F , 21°C
Dew Point: 64°F , 18°C
Humidity: 83%
Barometer: 1007.1 hPa
Clouds: Partly cloudy
Visibility: 9 miles , 14 km
Cloud details: Partly cloudy 7500 ft
Partly cloudy 11000 ft
2020/07/13 00:00 CYOO 130000Z AUTO 33008KT 9SM SCT075 SCT110 21/18 A2974 RMK SLP071 DENSITY ALT 1400FT
CWWB - Burlington Piers, Ontario, Canada
Distance from station: WNW 56mi, 91km
Updated: 07/12/2020 8:00pm

 Wind from W
Wind: W 8 mph , 13 km/h
Temperature: 75°F , 24°C
Dew Point: 63°F , 17°C
Humidity: 65%
2020/07/13 00:00 CWWB 130000Z AUTO 27007KT 24/17 RMK AO1 SLP076 T02440168 53011
 
CYYZ - Toronto/Pearson, Ontario, Canada
Distance from station: NW 60mi, 96km
Updated: 07/12/2020 8:00pm
Mostly cloudy
Mostly cloudy
 Wind from NNW
Wind: NNW 15 mph , 24 km/h
Temperature: 75°F , 24°C
Dew Point: 59°F , 15°C
Humidity: 57%
Barometer: 1007.8 hPa
Clouds: Mostly cloudy
Visibility: 15 miles , 24 km
Cloud details: Few Clouds 5000 ft
Partly cloudy 6300 ft
Mostly cloudy 10000 ft
Mostly cloudy 25000 ft
2020/07/13 00:00 CYYZ 130000Z 33013KT 15SM FEW050 SCT063 BKN100 BKN250 24/15 A2976 RMK CU1SC2AC2CI2 SLP076 DENSITY ALT 1900FT
CYKZ - Toronto Buttonvi, Ontario, Canada
Distance from station: NW 62mi, 99km
Updated: 01/03/2019 4:00am
NOT Current
Partly cloudy
Partly cloudy
 Wind from WSW
Wind: WSW 5 mph , 7 km/h
Temperature: 27°F , -3°C
Wind Chill: 21°F , -6°C
Dew Point: 23°F , -5°C
Humidity: 86%
Barometer: 1010.8 hPa
Clouds: Partly cloudy
Visibility: 15 miles , 24 km
Cloud details: Partly cloudy 4000 ft
2019/01/03 09:00 CYKZ 030900Z 25004KT 15SM SCT040 M03/M05 A2985 RMK SC3 LAST STFD OBS FAREWELL SLP118
 
CXHM - Hamilton Rbg Cs, Ontario, Canada
Distance from station: W 62mi, 100km
Updated: 07/12/2020 8:00pm

 Wind from WNW
Wind: WNW 7 mph , 11 km/h
Temperature: 72°F , 22°C
Dew Point: 59°F , 15°C
Humidity: 65%
2020/07/13 00:00 CXHM 130000Z AUTO 30006KT 22/15 RMK AO1 SLP074 T02240150 53010
KDSV - Dansville, New York, USA
Distance from station: SE 62mi, 100km
Updated: 07/12/2020 7:54pm
Clear
Clear
 Wind from W
Wind: W 5 mph , 7 km/h
Temperature: 79°F , 26°C
Dew Point: 59°F , 15°C
Humidity: 51%
Barometer: 1008.1 hPa
Clouds: Clear
Visibility: 10 miles , 16 km
2020/07/12 23:54 KDSV 122354Z AUTO 27004KT 10SM CLR 26/15 A2977 RMK AO2 SLP086 T02560150 10294 20256 53013
 
CYHM - Hamilton Airport, Ontario, Canada
Distance from station: W 63mi, 101km
Updated: 07/12/2020 8:00pm
Mostly cloudy
Mostly cloudy
 Wind from WNW
Wind: WNW 7 mph , 11 km/h
Temperature: 72°F , 22°C
Dew Point: 63°F , 17°C
Humidity: 73%
Barometer: 1008.5 hPa
Clouds: Mostly cloudy
Visibility: 15 miles , 24 km
Cloud details: Few Clouds 3000 ft
Few Clouds 19000 ft
Mostly cloudy 22000 ft
2020/07/13 00:00 CYHM 130000Z 29006KT 15SM FEW030 FEW190 BKN220 22/17 A2978 RMK CU1AC1CI5 SLP083 DENSITY ALT 2000FT
CWNC - Cobourg (mars), Ontario, Canada
Distance from station: NNE 63mi, 102km
Updated: 07/12/2020 8:00pm

 Wind from NW
Wind: NW 6 mph , 9 km/h
Temperature: 75°F , 24°C
Dew Point: 64°F , 18°C
Humidity: 69%
2020/07/13 00:00 CWNC 130000Z AUTO 32005KT 24/18 RMK AO1 SLP063 T02380183 53007